sensor_id;sensor_type;location;lat;lon;timestamp;temperature;humidity
56256;DHT22;57229;51.432;-2.598;2023-07-31T00:00:08;16.60;99.90
56256;DHT22;57229;51.432;-2.598;2023-07-31T00:02:34;16.60;99.90
56256;DHT22;57229;51.432;-2.598;2023-07-31T00:05:08;16.60;99.90
56256;DHT22;57229;51.432;-2.598;2023-07-31T00:07:51;16.60;99.90
56256;DHT22;57229;51.432;-2.598;2023-07-31T00:10:26;16.60;99.90
56256;DHT22;57229;51.432;-2.598;2023-07-31T00:13:01;16.60;99.90
56256;DHT22;57229;51.432;-2.598;2023-07-31T00:15:27;16.60;99.90
56256;DHT22;57229;51.432;-2.598;2023-07-31T00:17:53;16.60;99.90
56256;DHT22;57229;51.432;-2.598;2023-07-31T00:20:19;16.70;99.90
56256;DHT22;57229;51.432;-2.598;2023-07-31T00:22:44;16.60;99.90
56256;DHT22;57229;51.432;-2.598;2023-07-31T00:25:10;16.60;99.90
56256;DHT22;57229;51.432;-2.598;2023-07-31T00:27:35;16.70;99.90
56256;DHT22;57229;51.432;-2.598;2023-07-31T00:30:01;16.70;99.90
56256;DHT22;57229;51.432;-2.598;2023-07-31T00:32:27;16.70;99.90
56256;DHT22;57229;51.432;-2.598;2023-07-31T00:34:52;16.80;99.90
56256;DHT22;57229;51.432;-2.598;2023-07-31T00:37:18;16.70;99.90
56256;DHT22;57229;51.432;-2.598;2023-07-31T00:39:52;16.70;99.90
56256;DHT22;57229;51.432;-2.598;2023-07-31T00:42:29;16.70;99.90
56256;DHT22;57229;51.432;-2.598;2023-07-31T00:44:57;16.70;99.90
56256;DHT22;57229;51.432;-2.598;2023-07-31T00:47:23;16.70;99.90
56256;DHT22;57229;51.432;-2.598;2023-07-31T00:49:49;16.70;99.90
56256;DHT22;57229;51.432;-2.598;2023-07-31T00:52:20;16.70;99.90
56256;DHT22;57229;51.432;-2.598;2023-07-31T00:54:46;16.70;99.90
56256;DHT22;57229;51.432;-2.598;2023-07-31T00:57:13;16.80;99.90
56256;DHT22;57229;51.432;-2.598;2023-07-31T00:59:38;16.70;99.90
56256;DHT22;57229;51.432;-2.598;2023-07-31T01:02:04;17.80;99.90
56256;DHT22;57229;51.432;-2.598;2023-07-31T01:04:31;16.70;99.90
56256;DHT22;57229;51.432;-2.598;2023-07-31T01:08:12;16.70;99.90
56256;DHT22;57229;51.432;-2.598;2023-07-31T01:10:11;16.70;99.90
56256;DHT22;57229;51.432;-2.598;2023-07-31T01:12:45;16.70;99.90
56256;DHT22;57229;51.432;-2.598;2023-07-31T01:15:12;16.70;99.90
56256;DHT22;57229;51.432;-2.598;2023-07-31T01:17:41;16.70;99.90
56256;DHT22;57229;51.432;-2.598;2023-07-31T01:20:12;16.70;99.90
56256;DHT22;57229;51.432;-2.598;2023-07-31T01:28:19;16.70;99.90
56256;DHT22;57229;51.432;-2.598;2023-07-31T01:30:48;16.70;99.90
56256;DHT22;57229;51.432;-2.598;2023-07-31T01:33:17;16.70;99.90
56256;DHT22;57229;51.432;-2.598;2023-07-31T01:35:44;16.70;99.90
56256;DHT22;57229;51.432;-2.598;2023-07-31T01:38:10;16.70;99.90
56256;DHT22;57229;51.432;-2.598;2023-07-31T01:40:36;16.70;99.90
56256;DHT22;57229;51.432;-2.598;2023-07-31T01:43:11;16.70;99.90
56256;DHT22;57229;51.432;-2.598;2023-07-31T01:45:36;16.70;99.90
56256;DHT22;57229;51.432;-2.598;2023-07-31T01:48:02;16.70;99.90
56256;DHT22;57229;51.432;-2.598;2023-07-31T01:50:27;16.70;99.90
56256;DHT22;57229;51.432;-2.598;2023-07-31T01:52:56;16.80;99.90
56256;DHT22;57229;51.432;-2.598;2023-07-31T01:55:22;16.70;99.90
56256;DHT22;57229;51.432;-2.598;2023-07-31T01:57:51;16.70;99.90
56256;DHT22;57229;51.432;-2.598;2023-07-31T02:00:30;16.70;99.90
56256;DHT22;57229;51.432;-2.598;2023-07-31T02:03:07;16.70;99.90
56256;DHT22;57229;51.432;-2.598;2023-07-31T02:08:54;16.80;99.90
56256;DHT22;57229;51.432;-2.598;2023-07-31T02:11:20;16.80;99.90
56256;DHT22;57229;51.432;-2.598;2023-07-31T02:13:46;16.80;99.90
56256;DHT22;57229;51.432;-2.598;2023-07-31T02:16:11;16.80;99.90
56256;DHT22;57229;51.432;-2.598;2023-07-31T02:18:37;16.80;99.90
56256;DHT22;57229;51.432;-2.598;2023-07-31T02:21:02;16.80;99.90
56256;DHT22;57229;51.432;-2.598;2023-07-31T02:23:28;16.80;99.90
56256;DHT22;57229;51.432;-2.598;2023-07-31T02:25:54;16.90;99.90
56256;DHT22;57229;51.432;-2.598;2023-07-31T02:28:19;16.90;99.90
56256;DHT22;57229;51.432;-2.598;2023-07-31T02:30:45;16.90;99.90
56256;DHT22;57229;51.432;-2.598;2023-07-31T02:33:14;16.90;99.90
56256;DHT22;57229;51.432;-2.598;2023-07-31T02:35:40;16.90;99.90
56256;DHT22;57229;51.432;-2.598;2023-07-31T02:38:06;16.90;99.90
56256;DHT22;57229;51.432;-2.598;2023-07-31T02:40:32;16.80;99.90
56256;DHT22;57229;51.432;-2.598;2023-07-31T02:43:18;16.90;99.90
56256;DHT22;57229;51.432;-2.598;2023-07-31T02:45:54;16.90;99.90
56256;DHT22;57229;51.432;-2.598;2023-07-31T02:48:20;16.80;99.90
56256;DHT22;57229;51.432;-2.598;2023-07-31T02:50:51;16.80;99.90
56256;DHT22;57229;51.432;-2.598;2023-07-31T02:53:17;16.80;99.90
56256;DHT22;57229;51.432;-2.598;2023-07-31T02:55:44;16.80;99.90
56256;DHT22;57229;51.432;-2.598;2023-07-31T02:58:10;16.80;99.90
56256;DHT22;57229;51.432;-2.598;2023-07-31T03:00:35;16.80;99.90
56256;DHT22;57229;51.432;-2.598;2023-07-31T03:03:01;16.90;99.90
56256;DHT22;57229;51.432;-2.598;2023-07-31T03:05:27;16.80;99.90
56256;DHT22;57229;51.432;-2.598;2023-07-31T03:07:53;16.90;99.90
56256;DHT22;57229;51.432;-2.598;2023-07-31T03:10:18;16.80;99.90
56256;DHT22;57229;51.432;-2.598;2023-07-31T03:12:47;16.80;99.90
56256;DHT22;57229;51.432;-2.598;2023-07-31T03:15:13;16.80;99.90
56256;DHT22;57229;51.432;-2.598;2023-07-31T03:17:39;16.80;99.90
56256;DHT22;57229;51.432;-2.598;2023-07-31T03:20:05;16.80;99.90
56256;DHT22;57229;51.432;-2.598;2023-07-31T03:25:33;16.80;99.90
56256;DHT22;57229;51.432;-2.598;2023-07-31T03:27:59;17.00;99.90
56256;DHT22;57229;51.432;-2.598;2023-07-31T03:30:26;16.80;99.90
56256;DHT22;57229;51.432;-2.598;2023-07-31T03:32:52;16.80;99.90
56256;DHT22;57229;51.432;-2.598;2023-07-31T03:35:18;16.70;99.90
56256;DHT22;57229;51.432;-2.598;2023-07-31T03:37:43;16.80;99.90
56256;DHT22;57229;51.432;-2.598;2023-07-31T03:40:09;16.70;99.90
56256;DHT22;57229;51.432;-2.598;2023-07-31T03:42:53;16.70;99.90
56256;DHT22;57229;51.432;-2.598;2023-07-31T03:45:24;16.70;99.90
56256;DHT22;57229;51.432;-2.598;2023-07-31T03:47:50;16.70;99.90
56256;DHT22;57229;51.432;-2.598;2023-07-31T03:50:16;16.60;99.90
56256;DHT22;57229;51.432;-2.598;2023-07-31T03:52:42;16.60;99.90
56256;DHT22;57229;51.432;-2.598;2023-07-31T03:55:08;16.60;99.90
56256;DHT22;57229;51.432;-2.598;2023-07-31T03:57:33;16.60;99.90
56256;DHT22;57229;51.432;-2.598;2023-07-31T03:59:59;16.60;99.90
56256;DHT22;57229;51.432;-2.598;2023-07-31T04:02:25;16.50;99.90
56256;DHT22;57229;51.432;-2.598;2023-07-31T04:04:51;16.50;99.90
56256;DHT22;57229;51.432;-2.598;2023-07-31T04:07:16;16.50;99.90
56256;DHT22;57229;51.432;-2.598;2023-07-31T04:09:42;16.50;99.90
56256;DHT22;57229;51.432;-2.598;2023-07-31T04:12:08;16.40;99.90
56256;DHT22;57229;51.432;-2.598;2023-07-31T04:14:33;16.50;99.90
56256;DHT22;57229;51.432;-2.598;2023-07-31T04:16:59;16.50;99.90
56256;DHT22;57229;51.432;-2.598;2023-07-31T04:19:25;16.40;99.90
56256;DHT22;57229;51.432;-2.598;2023-07-31T04:21:50;16.50;99.90
56256;DHT22;57229;51.432;-2.598;2023-07-31T04:24:16;16.40;99.90
56256;DHT22;57229;51.432;-2.598;2023-07-31T04:26:47;17.20;99.90
56256;DHT22;57229;51.432;-2.598;2023-07-31T04:29:13;16.40;99.90
56256;DHT22;57229;51.432;-2.598;2023-07-31T04:31:38;16.40;99.90
56256;DHT22;57229;51.432;-2.598;2023-07-31T04:34:04;16.40;99.90
56256;DHT22;57229;51.432;-2.598;2023-07-31T04:36:30;16.40;99.90
56256;DHT22;57229;51.432;-2.598;2023-07-31T04:38:55;16.40;99.90
56256;DHT22;57229;51.432;-2.598;2023-07-31T04:41:21;16.40;99.90
56256;DHT22;57229;51.432;-2.598;2023-07-31T04:43:47;16.40;99.90
56256;DHT22;57229;51.432;-2.598;2023-07-31T04:46:12;16.40;99.90
56256;DHT22;57229;51.432;-2.598;2023-07-31T04:48:38;16.40;99.90
56256;DHT22;57229;51.432;-2.598;2023-07-31T04:51:03;16.30;99.90
56256;DHT22;57229;51.432;-2.598;2023-07-31T04:53:29;16.30;99.90
56256;DHT22;57229;51.432;-2.598;2023-07-31T04:55:54;16.30;99.90
56256;DHT22;57229;51.432;-2.598;2023-07-31T04:58:20;16.40;99.90
56256;DHT22;57229;51.432;-2.598;2023-07-31T05:00:45;16.40;99.90
56256;DHT22;57229;51.432;-2.598;2023-07-31T05:03:11;16.40;99.90
56256;DHT22;57229;51.432;-2.598;2023-07-31T05:05:37;16.40;99.90
56256;DHT22;57229;51.432;-2.598;2023-07-31T05:08:02;16.40;99.90
56256;DHT22;57229;51.432;-2.598;2023-07-31T05:10:28;16.40;99.90
56256;DHT22;57229;51.432;-2.598;2023-07-31T05:12:53;16.40;99.90
56256;DHT22;57229;51.432;-2.598;2023-07-31T05:15:19;16.40;99.90
56256;DHT22;57229;51.432;-2.598;2023-07-31T05:17:45;16.40;99.90
56256;DHT22;57229;51.432;-2.598;2023-07-31T05:20:11;16.40;99.90
56256;DHT22;57229;51.432;-2.598;2023-07-31T05:22:37;16.40;99.90
56256;DHT22;57229;51.432;-2.598;2023-07-31T05:25:03;16.40;99.90
56256;DHT22;57229;51.432;-2.598;2023-07-31T05:27:28;16.40;99.90
56256;DHT22;57229;51.432;-2.598;2023-07-31T05:29:54;16.40;99.90
56256;DHT22;57229;51.432;-2.598;2023-07-31T05:32:20;16.40;99.90
56256;DHT22;57229;51.432;-2.598;2023-07-31T05:34:45;16.40;99.90
56256;DHT22;57229;51.432;-2.598;2023-07-31T05:37:11;16.90;99.90
56256;DHT22;57229;51.432;-2.598;2023-07-31T05:39:37;16.40;99.90
56256;DHT22;57229;51.432;-2.598;2023-07-31T05:42:03;16.40;99.90
56256;DHT22;57229;51.432;-2.598;2023-07-31T05:44:29;16.40;99.90
56256;DHT22;57229;51.432;-2.598;2023-07-31T05:46:55;16.50;99.90
56256;DHT22;57229;51.432;-2.598;2023-07-31T05:49:21;16.40;99.90
56256;DHT22;57229;51.432;-2.598;2023-07-31T05:51:46;16.50;99.90
56256;DHT22;57229;51.432;-2.598;2023-07-31T05:54:12;16.50;99.90
56256;DHT22;57229;51.432;-2.598;2023-07-31T05:56:38;16.40;99.90
56256;DHT22;57229;51.432;-2.598;2023-07-31T05:59:03;16.40;99.90
56256;DHT22;57229;51.432;-2.598;2023-07-31T06:01:30;16.50;99.90
56256;DHT22;57229;51.432;-2.598;2023-07-31T06:03:55;16.40;99.90
56256;DHT22;57229;51.432;-2.598;2023-07-31T06:06:21;16.50;99.90
56256;DHT22;57229;51.432;-2.598;2023-07-31T06:08:47;16.50;99.90
56256;DHT22;57229;51.432;-2.598;2023-07-31T06:11:12;16.60;99.90
56256;DHT22;57229;51.432;-2.598;2023-07-31T06:13:38;16.60;99.90
56256;DHT22;57229;51.432;-2.598;2023-07-31T06:16:04;16.70;99.90
56256;DHT22;57229;51.432;-2.598;2023-07-31T06:18:34;16.70;99.90
56256;DHT22;57229;51.432;-2.598;2023-07-31T06:21:00;16.70;99.90
56256;DHT22;57229;51.432;-2.598;2023-07-31T06:23:26;16.70;99.90
56256;DHT22;57229;51.432;-2.598;2023-07-31T06:25:51;16.70;99.90
56256;DHT22;57229;51.432;-2.598;2023-07-31T06:28:17;16.70;99.90
56256;DHT22;57229;51.432;-2.598;2023-07-31T06:30:42;16.70;99.90
56256;DHT22;57229;51.432;-2.598;2023-07-31T06:33:08;16.70;99.90
56256;DHT22;57229;51.432;-2.598;2023-07-31T06:35:34;16.70;99.90
56256;DHT22;57229;51.432;-2.598;2023-07-31T06:38:00;16.70;99.90
56256;DHT22;57229;51.432;-2.598;2023-07-31T06:40:27;16.80;99.90
56256;DHT22;57229;51.432;-2.598;2023-07-31T06:42:53;16.80;99.90
56256;DHT22;57229;51.432;-2.598;2023-07-31T06:45:19;16.90;99.90
56256;DHT22;57229;51.432;-2.598;2023-07-31T06:47:44;17.00;99.90
56256;DHT22;57229;51.432;-2.598;2023-07-31T06:50:10;17.10;99.90
56256;DHT22;57229;51.432;-2.598;2023-07-31T06:52:36;16.30;99.90
56256;DHT22;57229;51.432;-2.598;2023-07-31T06:55:16;17.30;99.90
56256;DHT22;57229;51.432;-2.598;2023-07-31T06:57:49;17.40;99.90
56256;DHT22;57229;51.432;-2.598;2023-07-31T07:00:16;17.60;99.90
56256;DHT22;57229;51.432;-2.598;2023-07-31T07:02:42;17.70;99.90
56256;DHT22;57229;51.432;-2.598;2023-07-31T07:05:08;17.80;99.90
56256;DHT22;57229;51.432;-2.598;2023-07-31T07:07:34;17.90;99.90
56256;DHT22;57229;51.432;-2.598;2023-07-31T07:10:00;17.80;99.90
56256;DHT22;57229;51.432;-2.598;2023-07-31T07:12:28;17.80;99.90
56256;DHT22;57229;51.432;-2.598;2023-07-31T07:14:54;17.70;99.90
56256;DHT22;57229;51.432;-2.598;2023-07-31T07:17:20;17.70;99.90
56256;DHT22;57229;51.432;-2.598;2023-07-31T07:19:45;17.70;99.90
56256;DHT22;57229;51.432;-2.598;2023-07-31T07:22:13;17.70;99.90
56256;DHT22;57229;51.432;-2.598;2023-07-31T07:24:38;17.70;99.90
56256;DHT22;57229;51.432;-2.598;2023-07-31T07:27:04;17.70;99.90
56256;DHT22;57229;51.432;-2.598;2023-07-31T07:29:30;17.80;99.90
56256;DHT22;57229;51.432;-2.598;2023-07-31T07:31:55;17.80;99.90
56256;DHT22;57229;51.432;-2.598;2023-07-31T07:34:26;17.90;99.90
56256;DHT22;57229;51.432;-2.598;2023-07-31T07:36:51;17.40;99.90
56256;DHT22;57229;51.432;-2.598;2023-07-31T07:39:17;17.90;99.90
56256;DHT22;57229;51.432;-2.598;2023-07-31T07:41:43;17.90;99.90
56256;DHT22;57229;51.432;-2.598;2023-07-31T07:44:08;18.00;99.90
56256;DHT22;57229;51.432;-2.598;2023-07-31T07:46:34;18.00;99.90
56256;DHT22;57229;51.432;-2.598;2023-07-31T07:48:59;18.10;99.90
56256;DHT22;57229;51.432;-2.598;2023-07-31T07:51:25;18.10;99.90
56256;DHT22;57229;51.432;-2.598;2023-07-31T07:53:51;18.00;99.90
56256;DHT22;57229;51.432;-2.598;2023-07-31T07:56:17;17.90;99.90
56256;DHT22;57229;51.432;-2.598;2023-07-31T07:58:43;17.80;99.90
56256;DHT22;57229;51.432;-2.598;2023-07-31T08:01:08;17.80;99.90
56256;DHT22;57229;51.432;-2.598;2023-07-31T08:03:34;17.80;99.90
56256;DHT22;57229;51.432;-2.598;2023-07-31T08:06:00;17.80;99.90
56256;DHT22;57229;51.432;-2.598;2023-07-31T08:08:27;17.80;99.90
56256;DHT22;57229;51.432;-2.598;2023-07-31T08:10:53;17.80;99.90
56256;DHT22;57229;51.432;-2.598;2023-07-31T08:13:19;17.80;99.90
56256;DHT22;57229;51.432;-2.598;2023-07-31T08:15:44;17.80;99.90
56256;DHT22;57229;51.432;-2.598;2023-07-31T08:18:10;17.70;99.90
56256;DHT22;57229;51.432;-2.598;2023-07-31T08:20:37;17.20;99.90
56256;DHT22;57229;51.432;-2.598;2023-07-31T08:23:03;17.60;99.90
56256;DHT22;57229;51.432;-2.598;2023-07-31T08:25:28;17.60;99.90
56256;DHT22;57229;51.432;-2.598;2023-07-31T08:27:54;17.60;99.90
56256;DHT22;57229;51.432;-2.598;2023-07-31T08:30:20;17.60;99.90
56256;DHT22;57229;51.432;-2.598;2023-07-31T08:32:45;17.60;99.90
56256;DHT22;57229;51.432;-2.598;2023-07-31T08:35:11;17.60;99.90
56256;DHT22;57229;51.432;-2.598;2023-07-31T08:37:38;17.60;99.90
56256;DHT22;57229;51.432;-2.598;2023-07-31T08:40:05;17.50;99.90
56256;DHT22;57229;51.432;-2.598;2023-07-31T08:42:33;17.50;99.90
56256;DHT22;57229;51.432;-2.598;2023-07-31T08:44:59;17.50;99.90
56256;DHT22;57229;51.432;-2.598;2023-07-31T08:47:27;17.60;99.90
56256;DHT22;57229;51.432;-2.598;2023-07-31T08:49:54;17.80;99.90
56256;DHT22;57229;51.432;-2.598;2023-07-31T08:52:21;17.90;99.90
56256;DHT22;57229;51.432;-2.598;2023-07-31T08:54:46;18.00;99.90
56256;DHT22;57229;51.432;-2.598;2023-07-31T08:57:15;18.00;99.90
56256;DHT22;57229;51.432;-2.598;2023-07-31T08:59:42;18.00;99.90
56256;DHT22;57229;51.432;-2.598;2023-07-31T09:02:08;18.00;99.90
56256;DHT22;57229;51.432;-2.598;2023-07-31T09:04:34;18.00;99.90
56256;DHT22;57229;51.432;-2.598;2023-07-31T09:07:02;17.90;99.90
56256;DHT22;57229;51.432;-2.598;2023-07-31T09:09:31;17.50;99.90
56256;DHT22;57229;51.432;-2.598;2023-07-31T09:12:18;17.70;99.90
56256;DHT22;57229;51.432;-2.598;2023-07-31T09:14:45;17.50;99.90
56256;DHT22;57229;51.432;-2.598;2023-07-31T09:17:12;17.40;99.90
56256;DHT22;57229;51.432;-2.598;2023-07-31T09:19:37;17.30;99.90
56256;DHT22;57229;51.432;-2.598;2023-07-31T09:22:06;17.20;99.90
56256;DHT22;57229;51.432;-2.598;2023-07-31T09:24:34;17.10;99.90
56256;DHT22;57229;51.432;-2.598;2023-07-31T09:27:01;17.20;99.90
56256;DHT22;57229;51.432;-2.598;2023-07-31T09:29:28;17.10;99.90
56256;DHT22;57229;51.432;-2.598;2023-07-31T09:31:55;17.20;99.90
56256;DHT22;57229;51.432;-2.598;2023-07-31T09:34:29;17.30;99.90
56256;DHT22;57229;51.432;-2.598;2023-07-31T09:36:54;17.40;99.90
56256;DHT22;57229;51.432;-2.598;2023-07-31T09:39:20;17.40;99.90
56256;DHT22;57229;51.432;-2.598;2023-07-31T09:41:55;17.50;99.90
56256;DHT22;57229;51.432;-2.598;2023-07-31T09:44:21;17.50;99.90
56256;DHT22;57229;51.432;-2.598;2023-07-31T09:46:53;17.60;99.90
56256;DHT22;57229;51.432;-2.598;2023-07-31T09:49:19;17.80;99.90
56256;DHT22;57229;51.432;-2.598;2023-07-31T09:51:44;18.00;99.90
56256;DHT22;57229;51.432;-2.598;2023-07-31T09:54:15;18.20;99.90
56256;DHT22;57229;51.432;-2.598;2023-07-31T09:56:46;18.40;99.90
56256;DHT22;57229;51.432;-2.598;2023-07-31T09:59:14;18.50;99.90
56256;DHT22;57229;51.432;-2.598;2023-07-31T10:01:40;18.50;99.90
56256;DHT22;57229;51.432;-2.598;2023-07-31T10:04:08;18.50;99.90
56256;DHT22;57229;51.432;-2.598;2023-07-31T10:06:35;18.50;99.90
56256;DHT22;57229;51.432;-2.598;2023-07-31T10:09:03;18.50;99.90
56256;DHT22;57229;51.432;-2.598;2023-07-31T10:11:33;18.40;99.90
56256;DHT22;57229;51.432;-2.598;2023-07-31T10:13:59;18.40;99.90
56256;DHT22;57229;51.432;-2.598;2023-07-31T10:16:25;18.50;99.90
56256;DHT22;57229;51.432;-2.598;2023-07-31T10:18:51;18.40;99.90
56256;DHT22;57229;51.432;-2.598;2023-07-31T10:21:18;18.30;99.90
56256;DHT22;57229;51.432;-2.598;2023-07-31T10:23:44;18.10;99.90
56256;DHT22;57229;51.432;-2.598;2023-07-31T10:26:10;18.10;99.90
56256;DHT22;57229;51.432;-2.598;2023-07-31T10:28:37;18.00;99.90
56256;DHT22;57229;51.432;-2.598;2023-07-31T10:31:05;18.00;99.90
56256;DHT22;57229;51.432;-2.598;2023-07-31T10:33:31;18.00;99.90
56256;DHT22;57229;51.432;-2.598;2023-07-31T10:36:13;18.20;99.90
56256;DHT22;57229;51.432;-2.598;2023-07-31T10:38:40;18.30;99.90
56256;DHT22;57229;51.432;-2.598;2023-07-31T10:41:09;18.30;99.90
56256;DHT22;57229;51.432;-2.598;2023-07-31T10:43:37;18.40;99.90
56256;DHT22;57229;51.432;-2.598;2023-07-31T10:46:13;18.30;99.90
56256;DHT22;57229;51.432;-2.598;2023-07-31T10:48:40;18.10;99.90
56256;DHT22;57229;51.432;-2.598;2023-07-31T10:51:08;17.90;99.90
56256;DHT22;57229;51.432;-2.598;2023-07-31T10:53:35;17.80;99.90
56256;DHT22;57229;51.432;-2.598;2023-07-31T10:56:03;17.70;99.90
56256;DHT22;57229;51.432;-2.598;2023-07-31T10:58:30;17.70;99.90
56256;DHT22;57229;51.432;-2.598;2023-07-31T11:00:59;17.60;99.90
56256;DHT22;57229;51.432;-2.598;2023-07-31T11:03:26;17.60;99.90
56256;DHT22;57229;51.432;-2.598;2023-07-31T11:08:26;17.40;99.90
56256;DHT22;57229;51.432;-2.598;2023-07-31T11:11:13;17.40;99.90
56256;DHT22;57229;51.432;-2.598;2023-07-31T11:13:47;17.40;99.90
56256;DHT22;57229;51.432;-2.598;2023-07-31T11:16:15;17.50;99.90
56256;DHT22;57229;51.432;-2.598;2023-07-31T11:18:45;17.50;99.90
56256;DHT22;57229;51.432;-2.598;2023-07-31T11:21:15;17.60;99.90
56256;DHT22;57229;51.432;-2.598;2023-07-31T11:23:45;17.60;99.90
56256;DHT22;57229;51.432;-2.598;2023-07-31T11:26:11;17.60;99.90
56256;DHT22;57229;51.432;-2.598;2023-07-31T11:28:37;17.60;99.90
56256;DHT22;57229;51.432;-2.598;2023-07-31T11:31:03;17.50;99.90
56256;DHT22;57229;51.432;-2.598;2023-07-31T11:33:29;17.50;99.90
56256;DHT22;57229;51.432;-2.598;2023-07-31T11:35:55;17.50;99.90
56256;DHT22;57229;51.432;-2.598;2023-07-31T11:40:49;17.50;99.90
56256;DHT22;57229;51.432;-2.598;2023-07-31T11:43:15;17.40;99.90
56256;DHT22;57229;51.432;-2.598;2023-07-31T11:45:49;17.50;99.90
56256;DHT22;57229;51.432;-2.598;2023-07-31T11:48:28;17.60;99.90
56256;DHT22;57229;51.432;-2.598;2023-07-31T11:50:58;17.50;99.90
56256;DHT22;57229;51.432;-2.598;2023-07-31T11:53:40;17.40;99.90
56256;DHT22;57229;51.432;-2.598;2023-07-31T11:56:08;17.30;99.90
56256;DHT22;57229;51.432;-2.598;2023-07-31T11:58:37;17.20;99.90
56256;DHT22;57229;51.432;-2.598;2023-07-31T12:01:03;17.20;99.90
56256;DHT22;57229;51.432;-2.598;2023-07-31T12:03:29;17.10;99.90
56256;DHT22;57229;51.432;-2.598;2023-07-31T12:05:55;17.00;99.90
56256;DHT22;57229;51.432;-2.598;2023-07-31T12:08:22;16.80;99.90
56256;DHT22;57229;51.432;-2.598;2023-07-31T12:10:50;16.70;99.90
56256;DHT22;57229;51.432;-2.598;2023-07-31T12:13:26;16.70;99.90
56256;DHT22;57229;51.432;-2.598;2023-07-31T12:16:02;16.70;99.90
56256;DHT22;57229;51.432;-2.598;2023-07-31T12:18:31;16.60;99.90
56256;DHT22;57229;51.432;-2.598;2023-07-31T12:21:00;16.60;99.90
56256;DHT22;57229;51.432;-2.598;2023-07-31T12:23:33;16.60;99.90
56256;DHT22;57229;51.432;-2.598;2023-07-31T12:26:10;16.60;99.90
56256;DHT22;57229;51.432;-2.598;2023-07-31T12:28:46;16.70;99.90
56256;DHT22;57229;51.432;-2.598;2023-07-31T12:31:20;16.70;99.90
56256;DHT22;57229;51.432;-2.598;2023-07-31T12:33:47;16.70;99.90
56256;DHT22;57229;51.432;-2.598;2023-07-31T12:36:18;16.70;99.90
56256;DHT22;57229;51.432;-2.598;2023-07-31T12:38:45;16.60;99.90
56256;DHT22;57229;51.432;-2.598;2023-07-31T12:41:11;16.60;99.90
56256;DHT22;57229;51.432;-2.598;2023-07-31T12:43:39;16.60;99.90
56256;DHT22;57229;51.432;-2.598;2023-07-31T12:46:05;16.60;99.90
56256;DHT22;57229;51.432;-2.598;2023-07-31T12:48:33;16.60;99.90
56256;DHT22;57229;51.432;-2.598;2023-07-31T12:50:59;16.50;99.90
56256;DHT22;57229;51.432;-2.598;2023-07-31T12:53:24;16.50;99.90
56256;DHT22;57229;51.432;-2.598;2023-07-31T12:55:50;16.40;99.90
56256;DHT22;57229;51.432;-2.598;2023-07-31T12:58:16;16.40;99.90
56256;DHT22;57229;51.432;-2.598;2023-07-31T13:00:41;16.40;99.90
56256;DHT22;57229;51.432;-2.598;2023-07-31T13:03:07;16.40;99.90
56256;DHT22;57229;51.432;-2.598;2023-07-31T13:05:33;16.40;99.90
56256;DHT22;57229;51.432;-2.598;2023-07-31T13:07:59;16.40;99.90
56256;DHT22;57229;51.432;-2.598;2023-07-31T13:10:24;16.50;99.90
56256;DHT22;57229;51.432;-2.598;2023-07-31T13:12:52;16.60;99.90
56256;DHT22;57229;51.432;-2.598;2023-07-31T13:15:18;16.70;99.90
56256;DHT22;57229;51.432;-2.598;2023-07-31T13:17:43;16.80;99.90
56256;DHT22;57229;51.432;-2.598;2023-07-31T13:20:10;16.90;99.90
56256;DHT22;57229;51.432;-2.598;2023-07-31T13:22:36;17.00;99.90
56256;DHT22;57229;51.432;-2.598;2023-07-31T13:25:01;17.10;99.90
56256;DHT22;57229;51.432;-2.598;2023-07-31T13:27:27;17.20;99.90
56256;DHT22;57229;51.432;-2.598;2023-07-31T13:29:52;17.30;99.90
56256;DHT22;57229;51.432;-2.598;2023-07-31T13:32:19;17.30;99.90
56256;DHT22;57229;51.432;-2.598;2023-07-31T13:34:45;17.20;99.90
56256;DHT22;57229;51.432;-2.598;2023-07-31T13:37:11;17.40;99.90
56256;DHT22;57229;51.432;-2.598;2023-07-31T13:39:37;17.20;99.90
56256;DHT22;57229;51.432;-2.598;2023-07-31T13:42:03;17.20;99.90
56256;DHT22;57229;51.432;-2.598;2023-07-31T13:44:32;17.30;99.90
56256;DHT22;57229;51.432;-2.598;2023-07-31T13:46:59;17.50;99.90
56256;DHT22;57229;51.432;-2.598;2023-07-31T13:49:25;17.60;99.90
56256;DHT22;57229;51.432;-2.598;2023-07-31T13:51:51;17.90;99.90
56256;DHT22;57229;51.432;-2.598;2023-07-31T13:54:17;18.20;99.90
56256;DHT22;57229;51.432;-2.598;2023-07-31T13:56:43;18.60;99.90
56256;DHT22;57229;51.432;-2.598;2023-07-31T13:59:13;18.70;99.90
56256;DHT22;57229;51.432;-2.598;2023-07-31T14:01:40;18.80;99.90
56256;DHT22;57229;51.432;-2.598;2023-07-31T14:04:06;19.00;99.90
56256;DHT22;57229;51.432;-2.598;2023-07-31T14:06:32;19.10;99.90
56256;DHT22;57229;51.432;-2.598;2023-07-31T14:08:57;19.40;99.90
56256;DHT22;57229;51.432;-2.598;2023-07-31T14:11:23;19.80;99.90
56256;DHT22;57229;51.432;-2.598;2023-07-31T14:13:50;20.10;99.90
56256;DHT22;57229;51.432;-2.598;2023-07-31T14:16:16;20.60;99.90
56256;DHT22;57229;51.432;-2.598;2023-07-31T14:18:41;20.60;99.90
56256;DHT22;57229;51.432;-2.598;2023-07-31T14:21:07;20.80;99.90
56256;DHT22;57229;51.432;-2.598;2023-07-31T14:23:34;20.80;99.90
56256;DHT22;57229;51.432;-2.598;2023-07-31T14:25:59;20.70;99.90
56256;DHT22;57229;51.432;-2.598;2023-07-31T14:28:25;21.30;99.90
56256;DHT22;57229;51.432;-2.598;2023-07-31T14:30:51;21.50;99.90
56256;DHT22;57229;51.432;-2.598;2023-07-31T14:33:16;21.00;99.90
56256;DHT22;57229;51.432;-2.598;2023-07-31T14:35:42;20.60;99.90
56256;DHT22;57229;51.432;-2.598;2023-07-31T14:38:08;20.50;99.90
56256;DHT22;57229;51.432;-2.598;2023-07-31T14:40:33;21.00;99.90
56256;DHT22;57229;51.432;-2.598;2023-07-31T14:42:59;21.70;99.90
56256;DHT22;57229;51.432;-2.598;2023-07-31T14:45:25;22.20;99.90
56256;DHT22;57229;51.432;-2.598;2023-07-31T14:47:50;22.60;99.90
56256;DHT22;57229;51.432;-2.598;2023-07-31T14:50:16;22.90;99.10
56256;DHT22;57229;51.432;-2.598;2023-07-31T14:52:45;22.30;99.70
56256;DHT22;57229;51.432;-2.598;2023-07-31T14:55:11;22.40;99.80
56256;DHT22;57229;51.432;-2.598;2023-07-31T14:57:36;22.60;99.80
56256;DHT22;57229;51.432;-2.598;2023-07-31T15:00:02;22.60;99.00
56256;DHT22;57229;51.432;-2.598;2023-07-31T15:02:38;22.30;99.80
56256;DHT22;57229;51.432;-2.598;2023-07-31T15:05:05;22.10;99.00
56256;DHT22;57229;51.432;-2.598;2023-07-31T15:07:31;21.80;99.90
56256;DHT22;57229;51.432;-2.598;2023-07-31T15:09:57;21.70;99.70
56256;DHT22;57229;51.432;-2.598;2023-07-31T15:12:22;21.60;99.90
56256;DHT22;57229;51.432;-2.598;2023-07-31T15:14:49;21.50;99.90
56256;DHT22;57229;51.432;-2.598;2023-07-31T15:17:15;21.50;99.90
56256;DHT22;57229;51.432;-2.598;2023-07-31T15:19:41;21.90;99.90
56256;DHT22;57229;51.432;-2.598;2023-07-31T15:22:07;22.00;99.90
56256;DHT22;57229;51.432;-2.598;2023-07-31T15:24:33;22.10;99.90
56256;DHT22;57229;51.432;-2.598;2023-07-31T15:26:58;22.30;99.20
56256;DHT22;57229;51.432;-2.598;2023-07-31T15:29:24;22.50;99.90
56256;DHT22;57229;51.432;-2.598;2023-07-31T15:31:50;22.10;99.90